Greentown, Ohio
Current Conditions -  °F | °C
As of 10:51 PM on Wednesday 22 Oct 2014 (Local Time) from KCAK Reporting Station
Few Clouds Few Clouds  
Wind Chill: 41°   Ceiling: Unl
Heat Index: 45°   Visibility: 10mi
Dew Point: 40°   Wind: 7mph
Humidity: 82%   Direction: 330°NNW
Pressure: 30.22"   Gusts: NA
Location:  40.93°N, 81.4°W
Report Text: KCAK 230251Z 33006KT 10SM FEW038 07/04 A3022 RMK AO2 SLP238 T00720044 56001 $
Loading
Personal Weather Stations






























Interactive Weather Map
Tropical Storm Tracking
New forecast layout! Learn more

10-Day Weather Forecast

Advertisements
Track Severe Weather on mobile